• Join FlightAware (Why Join?)
  • Login
  • US Flag 
07:49AM EDT


 

Airport Tracker/Info


-or-


 

Live Flight TrackerFlight Track Log ✈ BMR818 ✈ 02-May-2012 ✈ EDDV / HAJ - EGLL / LHR

Flight Track Log - Related Links

Times and Time Zones

All times are in EDT time to prevent confusion due to time zone crossing. See the BMR818 flight status page for this flight to view local times or setup timezone preferences in your user account.

Time Position Orientation Groundspeed Altitude Reporting Facility
EDT Latitude Longitude Course Direction KTS MPH feet Rate Location/Type
10:21AM 52.4590 9.6453 265° West  Level Estimated
10:22AM 52.4505 9.4865 265° West  Level Estimated
10:23AM 52.4418 9.3276 265° West  Level Estimated
10:24AM 52.4329 9.1688 265° West  Level Estimated
10:25AM 52.4237 9.0101 265° West  Level Estimated
10:26AM 52.4144 8.8515 264° West  Level Estimated
10:27AM 52.4048 8.6929 264° West  Level Estimated
10:28AM 52.3951 8.5344 264° West  Level Estimated
10:29AM 52.3851 8.3760 264° West  Level Estimated
10:30AM 52.3749 8.2177 264° West  Level Estimated
10:31AM 52.3645 8.0594 264° West  Level Estimated
10:32AM 52.3539 7.9012 264° West  Level Estimated
10:33AM 52.3430 7.7430 264° West  Level Estimated
10:34AM 52.3320 7.5850 263° West  Level Estimated
10:35AM 52.3207 7.4270 263° West  Level Estimated
10:36AM 52.3093 7.2691 263° West  Level Estimated
10:37AM 52.2976 7.1113 263° West  Level Estimated
10:38AM 52.2857 6.9536 263° West  Level Estimated
10:39AM 52.2736 6.7959 263° West  Level Estimated
10:40AM 52.2613 6.6384 263° West  Level Estimated
10:41AM 52.2488 6.4809 263° West  Level Estimated
10:42AM 52.2361 6.3235 262° West  Level Estimated
10:43AM 52.2232 6.1663 262° West  Level Estimated
10:44AM 52.2100 6.0091 262° West  Level Estimated
10:45AM 52.1967 5.8520 262° West  Level Estimated
10:46AM 52.1832 5.6950 262° West  Level Estimated
10:47AM 52.1694 5.5381 262° West  Level Estimated
10:48AM 52.1554 5.3812 262° West  Level Estimated
10:49AM 52.1412 5.2245 262° West  Level Estimated
10:50AM 52.1269 5.0679 261° West  Level Estimated
10:51AM 52.1123 4.9114 261° West  Level Estimated
10:52AM 52.0975 4.7550 261° West  Level Estimated
10:53AM 52.0825 4.5987 261° West  Level Estimated
10:54AM 52.0672 4.4425 261° West  Level Estimated
10:55AM 52.0518 4.2864 261° West  Level Estimated
10:56AM 52.0362 4.1304 261° West  Level Estimated
10:57AM 52.0204 3.9746 261° West  Level Estimated
10:58AM 52.0043 3.8188 260° West  Level Estimated
10:59AM 51.9881 3.6632 260° West  Level Estimated
11:00AM 51.9716 3.5076 260° West  Level Estimated
11:01AM 51.9550 3.3522 260° West  Level Estimated
11:02AM 51.9381 3.1969 260° West  Level Estimated
11:03AM 51.9211 3.0417 260° West  Level Estimated
11:04AM 51.9038 2.8867 260° West  Level Estimated
11:05AM 51.8864 2.7317 260° West  Level Estimated
11:06AM 51.8687 2.5769 259° West  Level Estimated
11:07AM 51.8508 2.4222 259° West  Level Estimated
11:08AM 51.8327 2.2676 259° West  Level Estimated
11:09AM 51.8145 2.1131 259° West  Level Estimated
11:10AM 51.7960 1.9588 259° West  Level Estimated
11:11AM 51.7773 1.8046 259° West  Level Estimated
11:12AM 51.7584 1.6505 259° West  Level Estimated
11:13AM 51.7393 1.4966 259° West  Level Estimated
11:14AM 51.7201 1.3428 258° West  Level Estimated
11:15AM 51.7006 1.1891 258° West  Level Estimated
11:16AM 51.6809 1.0356 258° West  Level Estimated
11:17AM 51.6610 0.8821 258° West  Level Estimated
11:18AM 51.6409 0.7289 258° West  Level Estimated
11:19AM 51.6206 0.5757 258° West  Level Estimated
11:20AM 51.6001 0.4227 258° West  Level Estimated
11:21AM 51.5795 0.2699 258° West  Level Estimated
11:22AM 51.5586 0.1171 258° West  Level Estimated
11:23AM 51.5375 -0.0355 257° West  Level Estimated
11:24AM 51.5162 -0.1879 257° West  Level Estimated
11:25AM 51.4947 -0.3402 257° West  Level Estimated
11:26AM 51.4731 -0.4924 77° East  Level Estimated
11:27AM 51.4948 -0.3402 257° West  Level Estimated
11:28AM 51.4731 -0.4924 77° East  Level Estimated
11:29AM 51.4948 -0.3402 257° West  Level Estimated
11:30AM 51.4731 -0.4924 77° East  Level Estimated
11:31AM 51.4948 -0.3402 257° West  Level Estimated
11:32AM 51.4731 -0.4924 257° West  Level Estimated